Time;durP1;ratioP1;P1;durP2;ratioP2;P2;SDS_P1;SDS_P2;PMS_P1;PMS_P2;Temp;Humidity;BMP_temperature;BMP_pressure;BME280_temperature;BME280_humidity;BME280_pressure;Samples;Min_cycle;Max_cycle;Signal;HPM_P1;HPM_P2
2022/01/17 00:01:17;;;;;;;2.25;1.60;;;;;;;;;;5044849;28;20048;-52
2022/01/17 00:03:43;;;;;;;2.70;2.10;;;;;;;;;;5063532;28;20028;-51
2022/01/17 00:06:09;;;;;;;3.10;2.22;;;;;;;;;;5061022;28;20025;-51
2022/01/17 00:08:41;;;;;;;2.42;2.10;;;;;;;;;;5062346;28;20040;-53
2022/01/17 00:11:07;;;;;;;;;;;;;;;;;;5061922;28;20028;-52
2022/01/17 00:13:33;;;;;;;2.72;1.85;;;;;;;;;;5059687;28;19920;-53
2022/01/17 00:16:15;;;;;;;3.10;2.03;;;;;;;;;;5062300;28;20035;-58
2022/01/17 00:21:10;;;;;;;3.60;1.98;;;;;;;;;;5061580;28;20025;-50
2022/01/17 00:23:36;;;;;;;2.13;1.65;;;;;;;;;;5063065;28;20036;-52
2022/01/17 00:26:04;;;;;;;1.88;1.33;;;;;;;;;;5062740;28;20055;-55
2022/01/17 00:28:30;;;;;;;4.55;2.35;;;;;;;;;;5061871;28;20013;-51
2022/01/17 00:30:56;;;;;;;1.73;1.40;;;;;;;;;;5073789;28;20052;-50
2022/01/17 00:33:22;;;;;;;1.70;1.55;;;;;;;;;;5071686;28;20029;-50
2022/01/17 00:35:48;;;;;;;4.00;2.00;;;;;;;;;;5054188;28;20032;-51
2022/01/17 00:38:14;;;;;;;3.10;2.00;;;;;;;;;;5052880;28;20456;-50
2022/01/17 00:40:41;;;;;;;3.83;1.80;;;;;;;;;;5073329;28;20346;-52
2022/01/17 00:43:07;;;;;;;2.40;1.88;;;;;;;;;;5062790;28;20120;-51
2022/01/17 00:45:35;;;;;;;2.35;1.80;;;;;;;;;;5053754;28;20039;-50
2022/01/17 00:48:01;;;;;;;2.25;1.65;;;;;;;;;;5053542;28;20025;-59
2022/01/17 00:50:28;;;;;;;1.92;1.67;;;;;;;;;;5054665;28;20029;-50
2022/01/17 00:52:55;;;;;;;2.28;1.67;;;;;;;;;;5073670;28;20358;-50
2022/01/17 00:55:21;;;;;;;1.90;1.48;;;;;;;;;;5072369;28;20095;-49
2022/01/17 00:57:47;;;;;;;3.58;1.90;;;;;;;;;;5073381;28;20035;-50
2022/01/17 01:00:13;;;;;;;1.70;1.45;;;;;;;;;;5072902;28;20028;-53
2022/01/17 01:02:40;;;;;;;2.25;1.88;;;;;;;;;;5071086;28;20119;-50
2022/01/17 01:05:07;;;;;;;2.83;1.80;;;;;;;;;;5072374;28;20464;-50
2022/01/17 01:07:33;;;;;;;2.20;1.35;;;;;;;;;;5068432;28;20025;-49
2022/01/17 01:10:06;;;;;;;2.83;1.83;;;;;;;;;;5059491;28;20458;-50
2022/01/17 01:12:32;;;;;;;2.08;1.60;;;;;;;;;;5068046;28;20040;-49
2022/01/17 01:14:58;;;;;;;3.17;2.28;;;;;;;;;;5073279;28;20032;-51
2022/01/17 01:17:36;;;;;;;2.97;1.52;;;;;;;;;;5072395;28;20100;-56
2022/01/17 01:20:23;;;;;;;1.92;1.50;;;;;;;;;;5072424;28;20017;-57
2022/01/17 01:28:18;;;;;;;1.98;1.52;;;;;;;;;;5052160;28;20044;-50
2022/01/17 01:30:48;;;;;;;2.22;1.60;;;;;;;;;;5052666;28;20028;-50
2022/01/17 01:33:22;;;;;;;1.95;1.33;;;;;;;;;;5052347;28;20052;-51
2022/01/17 01:35:49;;;;;;;2.67;1.58;;;;;;;;;;5053093;28;20095;-53
2022/01/17 01:38:15;;;;;;;2.33;1.58;;;;;;;;;;5066520;28;20044;-53
2022/01/17 01:40:41;;;;;;;2.47;1.67;;;;;;;;;;5072483;28;20025;-50
2022/01/17 01:43:07;;;;;;;2.13;1.92;;;;;;;;;;5053438;28;20057;-51
2022/01/17 01:45:33;;;;;;;1.85;1.42;;;;;;;;;;5052443;28;20057;-50
2022/01/17 01:48:00;;;;;;;2.78;2.05;;;;;;;;;;5069566;28;20071;-51
2022/01/17 01:50:26;;;;;;;3.17;2.38;;;;;;;;;;5071607;28;20085;-52
2022/01/17 01:52:52;;;;;;;2.38;1.67;;;;;;;;;;5055510;28;20029;-50
2022/01/17 01:55:20;;;;;;;2.10;1.90;;;;;;;;;;5051773;28;20032;-49
2022/01/17 01:57:46;;;;;;;3.20;1.50;;;;;;;;;;5067446;28;20038;-52
2022/01/17 02:00:14;;;;;;;2.75;1.80;;;;;;;;;;5071340;28;20103;-49
2022/01/17 02:02:40;;;;;;;2.78;1.77;;;;;;;;;;5066729;28;20032;-50
2022/01/17 02:05:06;;;;;;;2.28;1.65;;;;;;;;;;5070821;28;20475;-58
2022/01/17 02:07:33;;;;;;;3.10;1.80;;;;;;;;;;5058891;28;20029;-50
2022/01/17 02:09:59;;;;;;;2.30;1.88;;;;;;;;;;5052482;28;20029;-50
2022/01/17 02:12:28;;;;;;;3.58;2.35;;;;;;;;;;5051112;28;20562;-50
2022/01/17 02:14:54;;;;;;;2.58;1.73;;;;;;;;;;5052032;28;20027;-49
2022/01/17 02:17:23;;;;;;;3.72;1.75;;;;;;;;;;5060714;28;20342;-52
2022/01/17 02:19:53;;;;;;;1.83;1.42;;;;;;;;;;5072203;28;20012;-49
2022/01/17 02:22:19;;;;;;;1.92;1.40;;;;;;;;;;5071196;28;20032;-50
2022/01/17 02:24:46;;;;;;;3.00;2.08;;;;;;;;;;5067005;28;20473;-49
2022/01/17 02:27:12;;;;;;;1.67;1.38;;;;;;;;;;5070739;28;20029;-52
2022/01/17 02:29:38;;;;;;;2.22;1.58;;;;;;;;;;5072247;28;20082;-51
2022/01/17 02:32:04;;;;;;;3.38;2.28;;;;;;;;;;5061239;28;20036;-58
2022/01/17 02:34:30;;;;;;;2.47;1.52;;;;;;;;;;5051371;28;20074;-47
2022/01/17 02:36:56;;;;;;;4.60;1.60;;;;;;;;;;5060059;28;20105;-49
2022/01/17 02:39:22;;;;;;;8.00;2.58;;;;;;;;;;5071130;28;20028;-51
2022/01/17 02:41:49;;;;;;;2.25;1.70;;;;;;;;;;5071171;28;20423;-50
2022/01/17 02:44:15;;;;;;;2.28;1.98;;;;;;;;;;5071064;28;20026;-49
2022/01/17 02:46:41;;;;;;;2.65;1.88;;;;;;;;;;5064614;28;20135;-50
2022/01/17 02:49:08;;;;;;;2.30;1.90;;;;;;;;;;5050981;28;20025;-59
2022/01/17 02:51:34;;;;;;;2.38;1.70;;;;;;;;;;5058805;28;20052;-51
2022/01/17 02:54:01;;;;;;;2.38;1.60;;;;;;;;;;5071836;28;20505;-52
2022/01/17 02:56:27;;;;;;;1.83;1.42;;;;;;;;;;5044836;28;20123;-51
2022/01/17 02:58:53;;;;;;;2.85;1.83;;;;;;;;;;5051763;28;20124;-49
2022/01/17 03:01:21;;;;;;;2.28;1.67;;;;;;;;;;5049987;28;20112;-50
2022/01/17 03:03:47;;;;;;;2.50;1.92;;;;;;;;;;5052274;28;20416;-50
2022/01/17 03:06:13;;;;;;;4.93;1.83;;;;;;;;;;5056837;28;20020;-52
2022/01/17 03:08:40;;;;;;;2.80;1.83;;;;;;;;;;5075470;28;20027;-49
2022/01/17 03:11:07;;;;;;;1.98;1.52;;;;;;;;;;5074656;28;20025;-58
2022/01/17 03:13:36;;;;;;;3.20;1.42;;;;;;;;;;5075197;28;20036;-49
2022/01/17 03:16:04;;;;;;;2.72;1.80;;;;;;;;;;5074911;28;20354;-50
2022/01/17 03:18:36;;;;;;;2.10;1.50;;;;;;;;;;5054793;28;20122;-57
2022/01/17 03:21:02;;;;;;;2.42;1.80;;;;;;;;;;5074257;28;20098;-55
2022/01/17 03:23:28;;;;;;;2.50;1.98;;;;;;;;;;5073971;28;20028;-53
2022/01/17 03:25:55;;;;;;;2.25;1.65;;;;;;;;;;5055129;28;20032;-53
2022/01/17 03:28:22;;;;;;;2.83;2.08;;;;;;;;;;5054599;28;20029;-51
2022/01/17 03:30:48;;;;;;;1.70;1.45;;;;;;;;;;5055485;28;20489;-49
2022/01/17 03:33:14;;;;;;;1.48;1.27;;;;;;;;;;5054195;28;20059;-49
2022/01/17 03:35:41;;;;;;;2.40;1.60;;;;;;;;;;5037316;28;20028;-50
2022/01/17 03:38:08;;;;;;;1.60;1.45;;;;;;;;;;5071400;28;20052;-58
2022/01/17 03:40:34;;;;;;;2.35;1.65;;;;;;;;;;5074799;28;20025;-51
2022/01/17 03:43:00;;;;;;;2.03;1.58;;;;;;;;;;5074987;28;20017;-50
2022/01/17 03:45:26;;;;;;;2.40;1.58;;;;;;;;;;5072484;28;20069;-49
2022/01/17 03:47:52;;;;;;;2.70;1.83;;;;;;;;;;5059846;28;20520;-49
2022/01/17 03:50:20;;;;;;;2.92;1.60;;;;;;;;;;5058838;28;20032;-50
2022/01/17 03:52:46;;;;;;;3.38;1.42;;;;;;;;;;5074256;28;20059;-49
2022/01/17 03:55:14;;;;;;;2.35;1.50;;;;;;;;;;5073653;28;20028;-50
2022/01/17 03:57:43;;;;;;;3.28;1.83;;;;;;;;;;5074120;28;20381;-52
2022/01/17 04:00:10;;;;;;;1.98;1.67;;;;;;;;;;5073954;28;20025;-59
2022/01/17 04:02:36;;;;;;;1.63;1.25;;;;;;;;;;5073419;28;20497;-50
2022/01/17 04:05:03;;;;;;;2.53;1.95;;;;;;;;;;5074166;28;20028;-50
2022/01/17 04:07:29;;;;;;;2.65;1.50;;;;;;;;;;5064371;28;20028;-50
2022/01/17 04:09:54;;;;;;;1.88;1.50;;;;;;;;;;5054833;28;20017;-52
2022/01/17 04:12:20;;;;;;;2.25;1.60;;;;;;;;;;5060861;28;20068;-51
2022/01/17 04:14:46;;;;;;;2.45;1.58;;;;;;;;;;5073740;28;20574;-50
2022/01/17 04:17:12;;;;;;;1.90;1.50;;;;;;;;;;5066548;28;20020;-50
2022/01/17 04:19:41;;;;;;;2.03;1.52;;;;;;;;;;5054125;28;20163;-50
2022/01/17 04:22:10;;;;;;;1.85;1.35;;;;;;;;;;5036321;28;20029;-57
2022/01/17 04:24:36;;;;;;;2.03;1.50;;;;;;;;;;5063501;28;20036;-51
2022/01/17 04:27:02;;;;;;;2.65;1.77;;;;;;;;;;5073377;28;20016;-50
2022/01/17 04:29:27;;;;;;;2.25;1.65;;;;;;;;;;5073341;28;20534;-53
2022/01/17 04:31:54;;;;;;;2.08;1.58;;;;;;;;;;5073853;28;20025;-49
2022/01/17 04:34:20;;;;;;;1.85;1.67;;;;;;;;;;5072976;28;20028;-52
2022/01/17 04:36:46;;;;;;;2.85;2.00;;;;;;;;;;5073547;28;20097;-50
2022/01/17 04:39:16;;;;;;;2.38;1.67;;;;;;;;;;5071557;28;20025;-57
2022/01/17 04:41:42;;;;;;;2.20;1.50;;;;;;;;;;5072078;28;20025;-49
2022/01/17 04:46:52;;;;;;;2.30;1.60;;;;;;;;;;5053761;28;20036;-51
2022/01/17 04:49:18;;;;;;;2.70;1.75;;;;;;;;;;5059626;28;20032;-50
2022/01/17 04:51:45;;;;;;;2.70;1.83;;;;;;;;;;5053471;28;20021;-50
2022/01/17 04:54:39;;;;;;;2.00;1.50;;;;;;;;;;5052799;28;20025;-59
2022/01/17 04:57:04;;;;;;;1.70;1.40;;;;;;;;;;5054667;28;20389;-50
2022/01/17 04:59:30;;;;;;;1.67;1.50;;;;;;;;;;5052717;28;20063;-49
2022/01/17 05:01:56;;;;;;;3.15;2.30;;;;;;;;;;5053490;28;20056;-50
2022/01/17 05:04:22;;;;;;;2.88;2.08;;;;;;;;;;5052127;28;20029;-51
2022/01/17 05:06:48;;;;;;;2.85;1.60;;;;;;;;;;5065869;28;20385;-51
2022/01/17 05:09:14;;;;;;;2.08;1.40;;;;;;;;;;5052593;28;20032;-51
2022/01/17 05:11:41;;;;;;;2.42;1.50;;;;;;;;;;5053473;28;20531;-50
2022/01/17 05:14:08;;;;;;;2.95;1.73;;;;;;;;;;5036764;28;20490;-49
2022/01/17 05:16:39;;;;;;;2.63;1.90;;;;;;;;;;5072483;28;20033;-51
2022/01/17 05:21:50;;;;;;;2.53;1.98;;;;;;;;;;5053063;28;20028;-51
2022/01/17 05:24:16;;;;;;;2.28;1.90;;;;;;;;;;5056056;28;20025;-52
2022/01/17 05:26:42;;;;;;;2.25;1.83;;;;;;;;;;5053166;28;20083;-50
2022/01/17 05:29:08;;;;;;;2.38;1.80;;;;;;;;;;5071598;28;20032;-51
2022/01/17 05:31:34;;;;;;;2.88;2.15;;;;;;;;;;5072365;28;20043;-51
2022/01/17 05:34:00;;;;;;;2.40;1.88;;;;;;;;;;5065942;28;20470;-52
2022/01/17 05:36:26;;;;;;;2.58;1.83;;;;;;;;;;5051787;28;20027;-49
2022/01/17 05:38:52;;;;;;;3.00;2.17;;;;;;;;;;5065942;28;20389;-50
2022/01/17 05:41:19;;;;;;;2.05;1.58;;;;;;;;;;5071907;28;20020;-50
2022/01/17 05:43:45;;;;;;;2.47;1.83;;;;;;;;;;5068159;28;20039;-50
2022/01/17 05:46:11;;;;;;;1.80;1.60;;;;;;;;;;5059524;28;20064;-59
2022/01/17 05:48:37;;;;;;;1.88;1.63;;;;;;;;;;5072307;28;20082;-50
2022/01/17 05:51:10;;;;;;;6.85;1.70;;;;;;;;;;5072207;28;20055;-52
2022/01/17 05:53:36;;;;;;;2.33;1.65;;;;;;;;;;5072819;28;20234;-50
2022/01/17 05:56:02;;;;;;;2.10;1.45;;;;;;;;;;5072906;28;20021;-51
2022/01/17 05:58:28;;;;;;;1.90;1.40;;;;;;;;;;5072459;28;20078;-53
2022/01/17 06:00:54;;;;;;;1.90;1.58;;;;;;;;;;5072923;28;20020;-54
2022/01/17 06:03:20;;;;;;;2.13;1.60;;;;;;;;;;5072212;28;20081;-51
2022/01/17 06:05:46;;;;;;;2.53;1.83;;;;;;;;;;5072953;28;20100;-54
2022/01/17 06:08:12;;;;;;;1.83;1.50;;;;;;;;;;5072146;28;20025;-52
2022/01/17 06:10:38;;;;;;;3.97;2.13;;;;;;;;;;5072931;28;20377;-49
2022/01/17 06:13:04;;;;;;;1.73;1.27;;;;;;;;;;5072233;28;20478;-49
2022/01/17 06:15:31;;;;;;;1.65;1.50;;;;;;;;;;5071654;28;20434;-52
2022/01/17 06:17:56;;;;;;;1.90;1.50;;;;;;;;;;5072026;28;20355;-52
2022/01/17 06:20:23;;;;;;;2.25;1.63;;;;;;;;;;5068698;28;20031;-58
2022/01/17 06:22:48;;;;;;;1.65;1.50;;;;;;;;;;5072127;28;20029;-55
2022/01/17 06:25:14;;;;;;;2.20;1.55;;;;;;;;;;5056785;28;20024;-55
2022/01/17 06:27:40;;;;;;;2.03;1.30;;;;;;;;;;5052892;28;20472;-55
2022/01/17 06:30:07;;;;;;;2.17;1.33;;;;;;;;;;5052465;28;20040;-53
2022/01/17 06:32:34;;;;;;;2.72;1.73;;;;;;;;;;5049884;28;20381;-52
2022/01/17 06:35:03;;;;;;;1.90;1.63;;;;;;;;;;5071699;28;20105;-53
2022/01/17 06:37:29;;;;;;;2.67;1.65;;;;;;;;;;5070644;28;20044;-51
2022/01/17 06:39:55;;;;;;;1.65;1.55;;;;;;;;;;5071798;28;20108;-55
2022/01/17 06:42:22;;;;;;;2.40;1.63;;;;;;;;;;5071729;28;20099;-53
2022/01/17 06:44:48;;;;;;;4.50;1.38;;;;;;;;;;5072349;28;20070;-52
2022/01/17 06:47:14;;;;;;;2.22;1.52;;;;;;;;;;5071713;28;20119;-53
2022/01/17 06:49:40;;;;;;;3.22;1.58;;;;;;;;;;5071713;28;20106;-50
2022/01/17 06:52:06;;;;;;;2.40;1.42;;;;;;;;;;5071520;28;20540;-56
2022/01/17 06:54:32;;;;;;;6.75;1.60;;;;;;;;;;5071554;28;20655;-50
2022/01/17 06:56:58;;;;;;;5.32;1.60;;;;;;;;;;5072086;28;20021;-50
2022/01/17 06:59:24;;;;;;;4.57;1.75;;;;;;;;;;5071490;28;20021;-57
2022/01/17 07:01:50;;;;;;;3.20;1.83;;;;;;;;;;5071944;28;20043;-60
2022/01/17 07:04:16;;;;;;;3.22;1.27;;;;;;;;;;5071309;28;20103;-49
2022/01/17 07:06:42;;;;;;;2.70;1.80;;;;;;;;;;5071789;28;20025;-49
2022/01/17 07:09:11;;;;;;;4.32;1.58;;;;;;;;;;5072081;28;20021;-49
2022/01/17 07:11:40;;;;;;;4.63;1.50;;;;;;;;;;5072000;28;20063;-48
2022/01/17 07:14:08;;;;;;;4.47;1.65;;;;;;;;;;5071942;28;20485;-53
2022/01/17 07:16:35;;;;;;;7.55;1.88;;;;;;;;;;5071161;28;20029;-50
2022/01/17 07:19:01;;;;;;;5.68;1.70;;;;;;;;;;5041566;28;20017;-53
2022/01/17 07:21:27;;;;;;;11.48;2.80;;;;;;;;;;5091241;28;20376;-46
2022/01/17 07:23:53;;;;;;;9.55;2.00;;;;;;;;;;5088472;28;20024;-51
2022/01/17 07:26:18;;;;;;;9.05;1.70;;;;;;;;;;5067776;28;20572;-51
2022/01/17 07:28:44;;;;;;;2.95;1.27;;;;;;;;;;5053017;28;20104;-48
2022/01/17 07:31:10;;;;;;;5.47;2.67;;;;;;;;;;5051650;28;20025;-52
2022/01/17 07:33:37;;;;;;;7.28;2.13;;;;;;;;;;5080220;28;20456;-49
2022/01/17 07:36:05;;;;;;;8.93;1.65;;;;;;;;;;5091810;28;20108;-50
2022/01/17 07:38:31;;;;;;;4.50;1.58;;;;;;;;;;5090951;28;20047;-50
2022/01/17 07:40:57;;;;;;;4.13;1.60;;;;;;;;;;5091479;28;20046;-50
2022/01/17 07:43:23;;;;;;;7.25;2.10;;;;;;;;;;5091191;28;20020;-50
2022/01/17 07:51:11;;;;;;;4.88;1.50;;;;;;;;;;5072851;28;20056;-52
2022/01/17 07:53:37;;;;;;;4.72;1.65;;;;;;;;;;5074411;28;20037;-49
2022/01/17 07:56:04;;;;;;;7.90;1.77;;;;;;;;;;5075015;28;20036;-49
2022/01/17 07:58:30;;;;;;;4.40;1.75;;;;;;;;;;5074534;28;20035;-52
2022/01/17 08:00:56;;;;;;;3.60;1.40;;;;;;;;;;5075078;28;20025;-53
2022/01/17 08:03:22;;;;;;;4.22;1.60;;;;;;;;;;5074255;28;20365;-51
2022/01/17 08:05:47;;;;;;;2.97;1.70;;;;;;;;;;5075072;28;20028;-51
2022/01/17 08:08:14;;;;;;;5.75;2.15;;;;;;;;;;5073919;28;20028;-59
2022/01/17 08:10:40;;;;;;;2.60;1.58;;;;;;;;;;5075268;28;20462;-48
2022/01/17 08:13:06;;;;;;;4.40;1.45;;;;;;;;;;5074738;28;20117;-53
2022/01/17 08:15:32;;;;;;;2.67;1.63;;;;;;;;;;5074136;28;20067;-53
2022/01/17 08:17:58;;;;;;;3.47;1.42;;;;;;;;;;5076245;28;20035;-50
2022/01/17 08:20:24;;;;;;;2.75;1.58;;;;;;;;;;5088480;28;20024;-52
2022/01/17 08:22:50;;;;;;;2.50;1.38;;;;;;;;;;5072939;28;20035;-49
2022/01/17 08:25:16;;;;;;;2.20;1.25;;;;;;;;;;5058337;28;20389;-49
2022/01/17 08:27:43;;;;;;;5.85;1.45;;;;;;;;;;5054338;28;20078;-50
2022/01/17 08:30:09;;;;;;;4.00;1.13;;;;;;;;;;5054392;28;20408;-49
2022/01/17 08:32:35;;;;;;;2.58;1.30;;;;;;;;;;5053972;28;20013;-48
2022/01/17 08:35:01;;;;;;;3.83;2.08;;;;;;;;;;5054435;28;20025;-48
2022/01/17 08:37:30;;;;;;;1.75;1.23;;;;;;;;;;5053617;28;20081;-48
2022/01/17 08:39:56;;;;;;;2.63;1.58;;;;;;;;;;5054089;28;20032;-47
2022/01/17 08:42:23;;;;;;;1.75;1.30;;;;;;;;;;5053189;28;20021;-47
2022/01/17 08:44:50;;;;;;;2.40;1.20;;;;;;;;;;5054511;28;20119;-48
2022/01/17 08:47:20;;;;;;;2.78;1.27;;;;;;;;;;5055766;28;20036;-50
2022/01/17 08:49:48;;;;;;;3.90;2.08;;;;;;;;;;5074104;28;20039;-49
2022/01/17 08:52:15;;;;;;;2.40;1.30;;;;;;;;;;5073668;28;20020;-49
2022/01/17 08:54:41;;;;;;;3.72;1.50;;;;;;;;;;5073853;28;20478;-51
2022/01/17 08:57:07;;;;;;;2.22;1.25;;;;;;;;;;5073830;28;20032;-49
2022/01/17 08:59:33;;;;;;;2.47;1.27;;;;;;;;;;5073377;28;20104;-52
2022/01/17 09:01:59;;;;;;;1.20;0.90;;;;;;;;;;5073389;28;20115;-51
2022/01/17 09:04:25;;;;;;;1.98;1.42;;;;;;;;;;5073458;28;20032;-49
2022/01/17 09:06:51;;;;;;;2.08;1.08;;;;;;;;;;5073641;28;20026;-52
2022/01/17 09:09:17;;;;;;;2.08;1.20;;;;;;;;;;5072497;28;20351;-50
2022/01/17 09:11:44;;;;;;;1.55;1.20;;;;;;;;;;5073644;28;20052;-48
2022/01/17 09:14:10;;;;;;;3.15;1.10;;;;;;;;;;5073037;28;20033;-52
2022/01/17 09:16:36;;;;;;;1.98;1.20;;;;;;;;;;5067795;28;20532;-51
2022/01/17 09:19:04;;;;;;;3.95;1.33;;;;;;;;;;5073042;28;20032;-52
2022/01/17 09:21:30;;;;;;;1.73;1.23;;;;;;;;;;5072993;28;20031;-50
2022/01/17 09:23:58;;;;;;;2.10;1.30;;;;;;;;;;5068856;28;20040;-51
2022/01/17 09:26:25;;;;;;;1.95;1.15;;;;;;;;;;5052587;28;20413;-51
2022/01/17 09:28:52;;;;;;;2.90;1.17;;;;;;;;;;5053091;28;20082;-49
2022/01/17 09:31:18;;;;;;;1.45;1.02;;;;;;;;;;5052933;28;20466;-51
2022/01/17 09:33:44;;;;;;;2.05;1.13;;;;;;;;;;5053231;28;20033;-47
2022/01/17 09:36:10;;;;;;;1.15;0.98;;;;;;;;;;5052889;28;20040;-47
2022/01/17 09:38:36;;;;;;;2.00;1.15;;;;;;;;;;5052169;28;20513;-53
2022/01/17 09:41:03;;;;;;;3.03;1.30;;;;;;;;;;5052642;28;20025;-49
2022/01/17 09:43:29;;;;;;;2.33;1.00;;;;;;;;;;5052194;28;20039;-49
2022/01/17 09:45:56;;;;;;;2.13;0.95;;;;;;;;;;5053084;28;20032;-48
2022/01/17 09:48:24;;;;;;;1.60;1.15;;;;;;;;;;5063699;28;20033;-53
2022/01/17 09:51:02;;;;;;;2.63;0.90;;;;;;;;;;5073833;28;20024;-51
2022/01/17 09:53:29;;;;;;;4.03;1.30;;;;;;;;;;5072239;28;20025;-51
2022/01/17 09:56:02;;;;;;;3.00;1.00;;;;;;;;;;5072615;28;20039;-50
2022/01/17 09:58:29;;;;;;;1.77;1.13;;;;;;;;;;5072142;28;20024;-49
2022/01/17 10:00:55;;;;;;;1.20;0.85;;;;;;;;;;5072632;28;20474;-49
2022/01/17 10:03:21;;;;;;;1.55;1.00;;;;;;;;;;5071974;28;20025;-50
2022/01/17 10:05:48;;;;;;;1.67;1.15;;;;;;;;;;5072687;28;20102;-48
2022/01/17 10:08:16;;;;;;;1.40;0.90;;;;;;;;;;5072388;28;20021;-48
2022/01/17 10:10:50;;;;;;;1.25;0.95;;;;;;;;;;5067721;28;20021;-47
2022/01/17 10:13:23;;;;;;;2.50;0.95;;;;;;;;;;5071788;28;20032;-47
2022/01/17 10:16:09;;;;;;;1.20;0.85;;;;;;;;;;5071898;28;20040;-46
2022/01/17 10:18:50;;;;;;;2.75;1.05;;;;;;;;;;5071431;28;20043;-48
2022/01/17 10:21:29;;;;;;;1.20;0.80;;;;;;;;;;5072259;28;20377;-48
2022/01/17 10:29:30;;;;;;;1.70;1.05;;;;;;;;;;5057881;28;20032;-49
2022/01/17 10:37:15;;;;;;;1.40;0.75;;;;;;;;;;5071952;28;20089;-47
2022/01/17 10:39:54;;;;;;;1.02;0.80;;;;;;;;;;5071553;28;20013;-49
2022/01/17 10:42:41;;;;;;;1.60;0.82;;;;;;;;;;5071351;28;20117;-51
2022/01/17 10:45:09;;;;;;;1.65;0.93;;;;;;;;;;5072176;28;20020;-48
2022/01/17 10:47:39;;;;;;;2.88;1.00;;;;;;;;;;5070546;28;20037;-51
2022/01/17 10:50:08;;;;;;;1.13;0.80;;;;;;;;;;5071454;28;20086;-47
2022/01/17 10:52:42;;;;;;;1.35;0.82;;;;;;;;;;5070669;28;20021;-50
2022/01/17 10:55:20;;;;;;;2.65;1.27;;;;;;;;;;5071842;28;20354;-51
2022/01/17 10:57:48;;;;;;;0.90;0.80;;;;;;;;;;5053895;28;20325;-49
2022/01/17 11:00:16;;;;;;;1.35;0.80;;;;;;;;;;5071743;28;20082;-49
2022/01/17 11:02:44;;;;;;;1.58;1.05;;;;;;;;;;5070214;28;20054;-54
2022/01/17 11:05:11;;;;;;;1.02;0.75;;;;;;;;;;5065147;28;20017;-48
2022/01/17 11:07:39;;;;;;;1.58;0.85;;;;;;;;;;5070839;28;20093;-50
2022/01/17 11:10:08;;;;;;;0.93;0.70;;;;;;;;;;5071678;28;20055;-49
2022/01/17 11:12:34;;;;;;;1.95;0.77;;;;;;;;;;5080167;28;20055;-47
2022/01/17 11:15:00;;;;;;;1.10;0.73;;;;;;;;;;5091798;28;20039;-47
2022/01/17 11:17:35;;;;;;;1.35;0.93;;;;;;;;;;5083302;28;20079;-47
2022/01/17 11:20:04;;;;;;;2.25;1.20;;;;;;;;;;5051789;28;20021;-51
2022/01/17 11:22:30;;;;;;;1.45;1.00;;;;;;;;;;5051344;28;20018;-47
2022/01/17 11:24:57;;;;;;;1.88;1.10;;;;;;;;;;5053058;28;20044;-50
2022/01/17 11:27:24;;;;;;;1.20;1.00;;;;;;;;;;5055035;28;20032;-48
2022/01/17 11:29:50;;;;;;;1.45;0.77;;;;;;;;;;5055660;28;20017;-48
2022/01/17 11:32:16;;;;;;;1.25;0.90;;;;;;;;;;5055414;28;20397;-52
2022/01/17 11:34:42;;;;;;;1.88;1.13;;;;;;;;;;5055006;28;20029;-49
2022/01/17 11:37:10;;;;;;;1.40;0.90;;;;;;;;;;5055604;28;20045;-51
2022/01/17 11:39:46;;;;;;;1.73;1.20;;;;;;;;;;5054924;28;20027;-47
2022/01/17 11:42:30;;;;;;;1.98;1.08;;;;;;;;;;5055293;28;20139;-49
2022/01/17 11:44:56;;;;;;;1.40;1.02;;;;;;;;;;5055389;28;20037;-49
2022/01/17 11:47:41;;;;;;;1.15;0.88;;;;;;;;;;5057749;28;20040;-49
2022/01/17 11:50:26;;;;;;;1.13;0.85;;;;;;;;;;5075523;28;20042;-48
2022/01/17 11:52:51;;;;;;;1.67;0.90;;;;;;;;;;5075009;28;20465;-49
2022/01/17 11:55:36;;;;;;;0.68;0.68;;;;;;;;;;5075265;28;20055;-48
2022/01/17 11:58:22;;;;;;;0.95;0.70;;;;;;;;;;5064224;28;20033;-47
2022/01/17 12:01:09;;;;;;;1.20;0.90;;;;;;;;;;5053924;28;20385;-48
2022/01/17 12:03:43;;;;;;;1.73;1.23;;;;;;;;;;5054141;28;20131;-51
2022/01/17 12:06:21;;;;;;;4.13;1.55;;;;;;;;;;5054759;28;20032;-47
2022/01/17 12:08:48;;;;;;;2.38;1.20;;;;;;;;;;5054969;28;20075;-47
2022/01/17 12:11:31;;;;;;;2.00;1.05;;;;;;;;;;5054308;28;20024;-50
2022/01/17 12:14:02;;;;;;;5.25;1.35;;;;;;;;;;5054571;28;20120;-48
2022/01/17 12:16:31;;;;;;;2.63;0.95;;;;;;;;;;5053996;28;20031;-52
2022/01/17 12:18:57;;;;;;;3.90;1.38;;;;;;;;;;5070923;28;20377;-47
2022/01/17 12:21:30;;;;;;;2.35;1.40;;;;;;;;;;5074187;28;20024;-51
2022/01/17 12:24:18;;;;;;;6.10;1.13;;;;;;;;;;5070421;28;20105;-53
2022/01/17 12:26:57;;;;;;;2.25;1.13;;;;;;;;;;5053933;28;20047;-51
2022/01/17 12:29:36;;;;;;;2.50;1.55;;;;;;;;;;5053215;28;20496;-48
2022/01/17 12:32:03;;;;;;;1.67;1.10;;;;;;;;;;5052962;28;20029;-49
2022/01/17 12:34:29;;;;;;;2.00;1.40;;;;;;;;;;5052749;28;20102;-51
2022/01/17 12:36:58;;;;;;;4.30;1.15;;;;;;;;;;5052948;28;20056;-46
2022/01/17 12:39:25;;;;;;;2.30;0.85;;;;;;;;;;5053820;28;20090;-49
2022/01/17 12:41:52;;;;;;;3.35;1.23;;;;;;;;;;5068801;28;20418;-47
2022/01/17 12:44:28;;;;;;;5.13;1.27;;;;;;;;;;5074063;28;20029;-49
2022/01/17 12:46:56;;;;;;;1.63;1.05;;;;;;;;;;5074015;28;20410;-50
2022/01/17 12:49:23;;;;;;;3.90;1.23;;;;;;;;;;5073675;28;20465;-48
2022/01/17 12:51:53;;;;;;;2.45;1.13;;;;;;;;;;5069792;28;20230;-49
2022/01/17 12:54:22;;;;;;;1.60;1.30;;;;;;;;;;5053296;28;20033;-54
2022/01/17 12:56:50;;;;;;;1.10;1.00;;;;;;;;;;5053766;28;20047;-47
2022/01/17 12:59:17;;;;;;;2.28;1.30;;;;;;;;;;5053838;28;20029;-49
2022/01/17 13:01:47;;;;;;;2.28;1.27;;;;;;;;;;5053380;28;20232;-50
2022/01/17 13:04:15;;;;;;;2.10;1.13;;;;;;;;;;5053676;28;20036;-56
2022/01/17 13:06:42;;;;;;;2.15;1.05;;;;;;;;;;5053170;28;20029;-49
2022/01/17 13:09:09;;;;;;;1.85;1.20;;;;;;;;;;5053852;28;20382;-51
2022/01/17 13:11:38;;;;;;;2.20;1.00;;;;;;;;;;5052938;28;20021;-49
2022/01/17 13:14:04;;;;;;;1.75;1.30;;;;;;;;;;5053644;28;20025;-50
2022/01/17 13:16:34;;;;;;;3.42;1.20;;;;;;;;;;5052791;28;20148;-50
2022/01/17 13:19:00;;;;;;;1.58;1.00;;;;;;;;;;5070393;28;20082;-52
2022/01/17 13:21:26;;;;;;;1.70;1.33;;;;;;;;;;5073053;28;20029;-48
2022/01/17 13:24:14;;;;;;;3.30;1.27;;;;;;;;;;5069657;28;20031;-47
2022/01/17 13:26:42;;;;;;;1.77;1.25;;;;;;;;;;5052543;28;20490;-49
2022/01/17 13:29:09;;;;;;;1.30;0.93;;;;;;;;;;5053698;28;20040;-51
2022/01/17 13:31:35;;;;;;;1.52;1.00;;;;;;;;;;5052723;28;20033;-48
2022/01/17 13:34:15;;;;;;;2.42;1.40;;;;;;;;;;5053230;28;20036;-47
2022/01/17 13:36:41;;;;;;;1.80;0.82;;;;;;;;;;5052501;28;20079;-48
2022/01/17 13:39:09;;;;;;;2.00;1.25;;;;;;;;;;5053289;28;20029;-49
2022/01/17 13:41:36;;;;;;;2.45;1.25;;;;;;;;;;5052324;28;20060;-47
2022/01/17 13:44:02;;;;;;;1.75;1.35;;;;;;;;;;5052584;28;20029;-47
2022/01/17 13:46:28;;;;;;;1.33;0.82;;;;;;;;;;5058359;28;20111;-47
2022/01/17 13:48:54;;;;;;;1.15;0.90;;;;;;;;;;5072336;28;20410;-51
2022/01/17 13:51:25;;;;;;;1.48;1.13;;;;;;;;;;5072630;28;20105;-47
2022/01/17 13:53:53;;;;;;;2.15;1.23;;;;;;;;;;5072773;28;20070;-49
2022/01/17 13:56:19;;;;;;;1.95;1.20;;;;;;;;;;5069316;28;20021;-50
2022/01/17 13:58:46;;;;;;;1.23;0.90;;;;;;;;;;5053153;28;20065;-51
2022/01/17 14:01:15;;;;;;;2.60;1.10;;;;;;;;;;5053131;28;20048;-49
2022/01/17 14:03:43;;;;;;;1.98;1.42;;;;;;;;;;5052043;28;20025;-51
2022/01/17 14:06:10;;;;;;;1.05;0.85;;;;;;;;;;5052544;28;20025;-47
2022/01/17 14:08:41;;;;;;;1.23;0.75;;;;;;;;;;5052017;28;20473;-48
2022/01/17 14:11:08;;;;;;;2.03;1.07;;;;;;;;;;5052404;28;20462;-47
2022/01/17 14:13:42;;;;;;;1.83;0.93;;;;;;;;;;5051861;28;20033;-46
2022/01/17 14:16:11;;;;;;;2.95;0.77;;;;;;;;;;5052377;28;20088;-47
2022/01/17 14:18:45;;;;;;;1.30;1.17;;;;;;;;;;5065324;28;20039;-46
2022/01/17 14:21:40;;;;;;;1.60;0.98;;;;;;;;;;5072621;28;20373;-45
2022/01/17 14:24:18;;;;;;;1.35;0.90;;;;;;;;;;5045507;28;20117;-45
2022/01/17 14:26:50;;;;;;;2.42;0.95;;;;;;;;;;5051771;28;20036;-46
2022/01/17 14:29:17;;;;;;;2.60;1.00;;;;;;;;;;5052241;28;20033;-45
2022/01/17 14:31:44;;;;;;;2.42;1.10;;;;;;;;;;5051550;28;20029;-45
2022/01/17 14:34:19;;;;;;;2.10;1.10;;;;;;;;;;5052153;28;20033;-46
2022/01/17 14:36:58;;;;;;;1.58;0.98;;;;;;;;;;5051136;28;20028;-45
2022/01/17 14:39:30;;;;;;;1.50;0.90;;;;;;;;;;5051309;28;20110;-53
2022/01/17 14:41:56;;;;;;;1.15;1.05;;;;;;;;;;5052190;28;20033;-45
2022/01/17 14:44:23;;;;;;;1.10;0.90;;;;;;;;;;5055049;28;20039;-45
2022/01/17 14:46:59;;;;;;;1.70;1.10;;;;;;;;;;5070934;28;20039;-45
2022/01/17 14:49:28;;;;;;;1.48;1.00;;;;;;;;;;5052207;28;20375;-45
2022/01/17 14:51:55;;;;;;;2.70;1.00;;;;;;;;;;5051661;28;20474;-45
2022/01/17 14:54:28;;;;;;;3.42;1.05;;;;;;;;;;5051455;28;20330;-50
2022/01/17 14:59:55;;;;;;;3.80;1.13;;;;;;;;;;5053370;28;20031;-47
2022/01/17 15:02:48;;;;;;;3.83;1.38;;;;;;;;;;5058190;28;20074;-45
2022/01/17 15:05:10;;;;;;;4.40;1.00;;;;;;;;;;5057521;28;20032;-46
2022/01/17 15:07:36;;;;;;;2.13;1.40;;;;;;;;;;5057691;28;20458;-46
2022/01/17 15:10:02;;;;;;;4.00;1.30;;;;;;;;;;5058497;28;20108;-45
2022/01/17 15:12:29;;;;;;;2.00;0.90;;;;;;;;;;5066943;28;20097;-47
2022/01/17 15:14:55;;;;;;;3.95;1.17;;;;;;;;;;5078284;28;20047;-45
2022/01/17 15:17:25;;;;;;;1.98;1.10;;;;;;;;;;5074548;28;20037;-45
2022/01/17 15:19:51;;;;;;;1.75;1.13;;;;;;;;;;5058134;28;20025;-45
2022/01/17 15:22:17;;;;;;;2.15;1.15;;;;;;;;;;5058350;28;20024;-49